createdAt,value
2018-09-14T00:00:44.537Z,69.56
2018-09-14T00:03:08.441Z,69.45
2018-09-14T00:05:32.290Z,68.79
2018-09-14T00:07:56.137Z,68.07
2018-09-14T00:10:19.979Z,68.13
2018-09-14T00:12:43.820Z,68.08
2018-09-14T00:15:07.743Z,68.08
2018-09-14T00:17:31.893Z,67.73
2018-09-14T00:19:55.803Z,68.23
2018-09-14T00:22:19.630Z,67.95
2018-09-14T00:24:43.467Z,68.13
2018-09-14T00:27:07.428Z,68.11
2018-09-14T00:29:31.268Z,67.71
2018-09-14T00:31:55.091Z,67.64
2018-09-14T00:34:18.946Z,67.85
2018-09-14T00:36:42.783Z,67.73
2018-09-14T00:39:08.617Z,68.17
2018-09-14T00:41:32.485Z,67.87
2018-09-14T00:43:56.390Z,67.20
2018-09-14T00:46:20.231Z,67.73
2018-09-14T00:48:44.083Z,67.95
2018-09-14T00:51:07.951Z,67.72
2018-09-14T00:53:31.783Z,67.03
2018-09-14T00:55:55.765Z,67.18
2018-09-14T00:58:19.577Z,67.73
2018-09-14T01:00:43.480Z,67.67
2018-09-14T01:03:07.367Z,67.60
2018-09-14T01:05:31.230Z,68.19
2018-09-14T01:07:55.192Z,67.67
2018-09-14T01:10:19.006Z,67.40
2018-09-14T01:12:42.836Z,67.47
2018-09-14T01:15:07.712Z,68.12
2018-09-14T01:17:31.538Z,67.85
2018-09-14T01:19:55.414Z,67.57
2018-09-14T01:22:19.310Z,67.36
2018-09-14T01:24:43.140Z,67.43
2018-09-14T01:27:07.107Z,67.93
2018-09-14T01:29:30.958Z,68.02
2018-09-14T01:31:54.799Z,68.47
2018-09-14T01:34:18.751Z,68.10
2018-09-14T01:36:42.589Z,68.17
2018-09-14T01:39:09.366Z,67.67
2018-09-14T01:41:33.181Z,67.43
2018-09-14T01:43:57.010Z,68.03
2018-09-14T01:46:20.971Z,67.96
2018-09-14T01:48:44.791Z,67.22
2018-09-14T01:51:08.627Z,67.11
2018-09-14T01:53:32.454Z,68.21
2018-09-14T01:55:56.304Z,68.06
2018-09-14T01:58:20.258Z,68.05
2018-09-14T02:00:44.088Z,67.95
2018-09-14T02:03:07.919Z,67.89
2018-09-14T02:05:31.806Z,67.55
2018-09-14T02:07:55.648Z,67.84
2018-09-14T02:10:23.130Z,67.80
2018-09-14T02:12:46.991Z,67.51
2018-09-14T02:15:10.827Z,67.34
2018-09-14T02:17:34.674Z,67.76
2018-09-14T02:19:58.496Z,67.33
2018-09-14T02:22:22.448Z,67.59
2018-09-14T02:24:46.311Z,67.59
2018-09-14T02:27:10.442Z,67.50
2018-09-14T02:29:34.285Z,66.81
2018-09-14T02:31:58.146Z,67.59
2018-09-14T02:34:22.012Z,67.99
2018-09-14T02:36:45.884Z,68.18
2018-09-14T02:39:09.859Z,67.66
2018-09-14T02:41:33.698Z,68.54
2018-09-14T02:43:57.540Z,68.45
2018-09-14T02:46:21.389Z,67.76
2018-09-14T02:48:45.237Z,68.36
2018-09-14T02:51:09.187Z,68.98
2018-09-14T02:53:33.093Z,67.83
2018-09-14T02:55:56.935Z,68.30
2018-09-14T02:58:20.803Z,68.92
2018-09-14T03:00:44.658Z,68.15
2018-09-14T03:03:08.649Z,67.51
2018-09-14T03:05:32.487Z,68.68
2018-09-14T03:07:56.839Z,68.65
2018-09-14T03:10:20.675Z,68.08
2018-09-14T03:12:44.522Z,67.52
2018-09-14T03:15:08.382Z,67.96
2018-09-14T03:17:32.287Z,67.62
2018-09-14T03:19:56.173Z,69.25
2018-09-14T03:22:20.021Z,68.48
2018-09-14T03:24:43.851Z,68.12
2018-09-14T03:27:07.738Z,67.68
2018-09-14T03:29:31.620Z,68.11
2018-09-14T03:31:55.487Z,67.28
2018-09-14T03:34:19.290Z,69.00
2018-09-14T03:36:43.160Z,69.56
2018-09-14T03:39:08.208Z,69.10
2018-09-14T03:41:32.047Z,68.60
2018-09-14T03:43:55.939Z,68.85
2018-09-14T03:46:19.765Z,69.12
2018-09-14T03:48:43.643Z,69.22
2018-09-14T03:51:07.481Z,68.19
2018-09-14T03:53:31.352Z,68.21
2018-09-14T03:55:55.420Z,67.76
2018-09-14T03:58:19.241Z,68.10
2018-09-14T04:00:43.126Z,68.14
2018-09-14T04:03:07.098Z,68.08
2018-09-14T04:05:30.909Z,68.27
2018-09-14T04:07:54.839Z,67.34
2018-09-14T04:10:18.644Z,67.61
2018-09-14T04:12:42.536Z,67.99
2018-09-14T04:15:06.599Z,67.98
2018-09-14T04:17:30.431Z,67.92
2018-09-14T04:19:54.306Z,68.19
2018-09-14T04:22:18.144Z,67.64
2018-09-14T04:24:42.027Z,68.09
2018-09-14T04:27:05.849Z,68.27
2018-09-14T04:29:29.730Z,68.35
2018-09-14T04:31:53.596Z,68.33
2018-09-14T04:34:17.443Z,68.31
2018-09-14T04:36:41.344Z,67.76
2018-09-14T04:39:07.923Z,68.36
2018-09-14T04:41:31.787Z,68.08
2018-09-14T04:43:55.663Z,67.47
2018-09-14T04:46:19.496Z,67.71
2018-09-14T04:48:43.378Z,68.11
2018-09-14T04:51:07.279Z,68.49
2018-09-14T04:53:31.125Z,69.21
2018-09-14T04:55:54.986Z,68.75
2018-09-14T04:58:18.835Z,68.47
2018-09-14T05:00:42.731Z,68.90
2018-09-14T05:03:06.652Z,69.56
2018-09-14T05:05:30.405Z,69.81
2018-09-14T05:07:54.264Z,70.10
2018-09-14T05:10:18.117Z,70.21
2018-09-14T05:12:41.986Z,70.32
2018-09-14T05:15:05.825Z,71.01
2018-09-14T05:17:29.711Z,71.27
2018-09-14T05:19:54.177Z,71.00
2018-09-14T05:22:18.018Z,72.38
2018-09-14T05:24:41.891Z,71.31
2018-09-14T05:27:05.774Z,70.34
2018-09-14T05:29:29.615Z,69.49
2018-09-14T05:31:53.488Z,69.76
2018-09-14T05:34:17.321Z,70.48
2018-09-14T05:36:41.479Z,70.40
2018-09-14T05:39:06.986Z,69.37
2018-09-14T05:41:30.870Z,71.30
2018-09-14T05:43:55.002Z,72.80
2018-09-14T05:46:18.853Z,72.67
2018-09-14T05:48:42.818Z,71.83
2018-09-14T05:51:06.721Z,71.66
2018-09-14T05:53:30.564Z,71.60
2018-09-14T05:55:54.407Z,71.78
2018-09-14T05:58:18.250Z,71.62
2018-09-14T06:00:42.204Z,72.00
2018-09-14T06:03:06.088Z,71.51
2018-09-14T06:05:30.049Z,72.02
2018-09-14T06:07:53.906Z,71.36
2018-09-14T06:10:17.757Z,71.45
2018-09-14T06:12:41.946Z,72.39
2018-09-14T06:15:05.842Z,72.86
2018-09-14T06:17:29.696Z,72.00
2018-09-14T06:19:53.668Z,72.65
2018-09-14T06:22:17.512Z,71.42
2018-09-14T06:24:41.335Z,72.48
2018-09-14T06:27:05.525Z,72.85
2018-09-14T06:29:29.362Z,73.90
2018-09-14T06:31:53.242Z,74.16
2018-09-14T06:34:23.552Z,72.54
2018-09-14T06:36:47.429Z,73.33
2018-09-14T06:39:12.416Z,71.98
2018-09-14T06:41:36.262Z,72.98
2018-09-14T06:44:00.088Z,73.81
2018-09-14T06:46:24.028Z,72.90
2018-09-14T06:48:47.875Z,73.46
2018-09-14T06:51:11.753Z,72.76
2018-09-14T06:53:35.598Z,73.54
2018-09-14T06:55:59.434Z,73.11
2018-09-14T06:58:23.550Z,73.79
2018-09-14T07:00:47.455Z,74.35
2018-09-14T07:03:11.722Z,73.84
2018-09-14T07:05:35.558Z,73.80
2018-09-14T07:07:59.387Z,75.06
2018-09-14T07:10:23.221Z,72.92
2018-09-14T07:12:47.076Z,72.29
2018-09-14T07:15:10.947Z,73.65
2018-09-14T07:17:34.789Z,74.05
2018-09-14T07:19:58.668Z,75.28
2018-09-14T07:22:22.558Z,75.12
2018-09-14T07:24:46.562Z,74.98
2018-09-14T07:27:11.578Z,74.72
2018-09-14T07:29:35.457Z,74.95
2018-09-14T07:31:59.335Z,74.11
2018-09-14T07:34:23.163Z,74.77
2018-09-14T07:36:47.047Z,74.84
2018-09-14T07:39:11.880Z,73.62
2018-09-14T07:41:35.734Z,72.66
2018-09-14T07:43:59.617Z,71.76
2018-09-14T07:46:23.496Z,71.65
2018-09-14T07:48:47.343Z,74.89
2018-09-14T07:51:11.398Z,73.77
2018-09-14T07:53:35.332Z,74.07
2018-09-14T07:55:59.216Z,74.25
2018-09-14T07:58:23.043Z,75.16
2018-09-14T08:00:46.884Z,73.98
2018-09-14T08:03:10.721Z,73.76
2018-09-14T08:05:34.554Z,74.03
2018-09-14T08:07:58.392Z,72.54
2018-09-14T08:10:22.264Z,73.98
2018-09-14T08:12:46.131Z,71.01
2018-09-14T08:15:09.965Z,71.19
2018-09-14T08:17:33.950Z,73.90
2018-09-14T08:19:58.262Z,73.93
2018-09-14T08:22:22.252Z,73.42
2018-09-14T08:24:46.142Z,74.02
2018-09-14T08:27:10.125Z,73.81
2018-09-14T08:29:34.023Z,72.09
2018-09-14T08:31:57.885Z,73.69
2018-09-14T08:34:21.740Z,73.01
2018-09-14T08:36:45.640Z,73.23
2018-09-14T08:39:10.930Z,74.05
2018-09-14T08:41:34.788Z,74.28
2018-09-14T08:43:58.616Z,73.93
2018-09-14T08:46:22.515Z,72.34
2018-09-14T08:48:46.391Z,71.56
2018-09-14T08:51:10.255Z,71.99
2018-09-14T08:53:34.205Z,71.96
2018-09-14T08:55:57.999Z,71.70
2018-09-14T08:58:21.961Z,70.93
2018-09-14T09:00:45.860Z,69.60
2018-09-14T09:03:09.720Z,70.24
2018-09-14T09:05:33.628Z,70.20
2018-09-14T09:07:57.473Z,69.96
2018-09-14T09:10:21.346Z,70.29
2018-09-14T09:12:45.454Z,69.15
2018-09-14T09:15:09.306Z,68.99
2018-09-14T09:17:33.196Z,68.60
2018-09-14T09:19:57.011Z,68.49
2018-09-14T09:22:20.911Z,67.56
2018-09-14T09:24:44.780Z,66.91
2018-09-14T09:27:08.668Z,66.79
2018-09-14T09:29:32.638Z,66.43
2018-09-14T09:31:56.441Z,67.66
2018-09-14T09:34:20.274Z,65.49
2018-09-14T09:36:44.297Z,65.23
2018-09-14T09:39:10.354Z,65.24
2018-09-14T09:41:34.199Z,64.69
2018-09-14T09:43:58.136Z,62.92
2018-09-14T09:46:21.909Z,63.60
2018-09-14T09:48:45.878Z,63.85
2018-09-14T09:51:09.745Z,62.21
2018-09-14T09:53:33.624Z,61.49
2018-09-14T09:55:57.490Z,61.79
2018-09-14T09:58:21.348Z,60.42
2018-09-14T10:00:50.624Z,59.60
2018-09-14T10:03:20.130Z,59.26
2018-09-14T10:06:50.539Z,60.46
2018-09-14T10:09:14.408Z,58.58
2018-09-14T10:11:38.388Z,58.50
2018-09-14T10:14:02.281Z,57.48
2018-09-14T10:16:26.115Z,57.13
2018-09-14T10:18:50.155Z,58.56
2018-09-14T10:21:14.307Z,57.06
2018-09-14T10:23:38.200Z,54.89
2018-09-14T10:26:02.051Z,56.00
2018-09-14T10:28:26.046Z,55.19
2018-09-14T10:30:49.920Z,56.17
2018-09-14T10:33:13.772Z,54.56
2018-09-14T10:35:37.813Z,53.42
2018-09-14T10:38:01.658Z,54.11
2018-09-14T10:40:25.615Z,52.43
2018-09-14T10:42:49.380Z,51.69
2018-09-14T10:45:13.224Z,52.84
2018-09-14T10:47:37.104Z,51.91
2018-09-14T10:50:01.060Z,51.07
2018-09-14T10:52:25.015Z,49.70
2018-09-14T10:54:48.896Z,51.27
2018-09-14T10:57:12.706Z,50.72
2018-09-14T10:59:37.729Z,49.92
2018-09-14T11:02:01.591Z,49.67
2018-09-14T11:04:25.600Z,49.71
2018-09-14T11:06:49.515Z,48.71
2018-09-14T11:09:14.265Z,48.95
2018-09-14T11:11:38.164Z,47.93
2018-09-14T11:14:02.083Z,47.76
2018-09-14T11:16:26.062Z,47.94
2018-09-14T11:18:49.986Z,49.98
2018-09-14T11:21:13.807Z,48.03
2018-09-14T11:23:37.789Z,47.59
2018-09-14T11:26:01.658Z,46.58
2018-09-14T11:28:25.756Z,46.11
2018-09-14T11:30:49.722Z,44.84
2018-09-14T11:33:13.564Z,46.30
2018-09-14T11:35:37.547Z,46.63
2018-09-14T11:38:01.457Z,47.07
2018-09-14T11:40:25.295Z,44.65
2018-09-14T11:42:49.248Z,45.38
2018-09-14T11:45:13.163Z,44.17
2018-09-14T11:47:37.014Z,44.93
2018-09-14T11:50:00.869Z,43.47
2018-09-14T11:52:25.302Z,43.88
2018-09-14T11:54:49.295Z,45.42
2018-09-14T11:57:13.142Z,46.80
2018-09-14T11:59:36.978Z,43.20
2018-09-14T12:02:00.862Z,42.81
2018-09-14T12:04:24.885Z,43.54
2018-09-14T12:06:48.790Z,42.55
2018-09-14T12:09:13.045Z,42.10
2018-09-14T12:11:36.921Z,42.25
2018-09-14T12:14:00.843Z,43.27
2018-09-14T12:16:24.718Z,43.79
2018-09-14T12:18:48.667Z,43.09
2018-09-14T12:21:12.526Z,43.86
2018-09-14T12:23:36.375Z,44.15
2018-09-14T12:26:00.381Z,44.60
2018-09-14T12:28:24.314Z,42.50
2018-09-14T12:30:48.177Z,34.35
2018-09-14T12:33:12.086Z,29.80
2018-09-14T12:35:35.998Z,34.79
2018-09-14T12:38:00.022Z,35.96
2018-09-14T12:40:23.923Z,37.21
2018-09-14T12:42:47.947Z,36.18
2018-09-14T12:45:13.049Z,32.48
2018-09-14T12:47:36.913Z,32.62
2018-09-14T12:50:00.834Z,30.18
2018-09-14T12:52:24.774Z,27.08
2018-09-14T12:54:48.610Z,25.30
2018-09-14T12:57:12.592Z,30.73
2018-09-14T12:59:36.442Z,29.54
2018-09-14T13:02:00.360Z,25.73
2018-09-14T13:04:24.296Z,26.30
2018-09-14T13:06:48.066Z,28.48
2018-09-14T13:09:12.790Z,24.40
2018-09-14T13:11:36.625Z,21.65
2018-09-14T13:14:00.546Z,20.78
2018-09-14T13:16:24.442Z,21.58
2018-09-14T13:18:48.328Z,21.80
2018-09-14T13:21:12.273Z,24.15
2018-09-14T13:23:36.143Z,23.01
2018-09-14T13:26:00.170Z,21.89
2018-09-14T13:28:23.979Z,22.71
2018-09-14T13:30:47.854Z,27.53
2018-09-14T13:33:11.749Z,23.42
2018-09-14T13:35:35.621Z,21.25
2018-09-14T13:37:59.471Z,22.80
2018-09-14T13:40:23.363Z,21.18
2018-09-14T13:42:47.228Z,20.58
2018-09-14T13:45:11.127Z,19.16
2018-09-14T13:47:35.015Z,19.75
2018-09-14T13:49:59.787Z,22.73
2018-09-14T13:52:23.843Z,27.94
2018-09-14T13:54:47.758Z,29.20
2018-09-14T13:57:11.664Z,29.40
2018-09-14T13:59:35.539Z,22.68
2018-09-14T14:01:59.391Z,21.80
2018-09-14T14:04:23.258Z,21.92
2018-09-14T14:06:47.134Z,22.08
2018-09-14T14:09:12.275Z,22.25
2018-09-14T14:11:37.049Z,27.57
2018-09-14T14:14:00.963Z,25.89
2018-09-14T14:16:24.858Z,25.64
2018-09-14T14:18:48.720Z,25.83
2018-09-14T14:21:12.619Z,22.87
2018-09-14T14:23:36.474Z,24.09
2018-09-14T14:26:00.405Z,23.34
2018-09-14T14:28:24.290Z,25.65
2018-09-14T14:30:48.123Z,24.93
2018-09-14T14:33:12.031Z,25.34
2018-09-14T14:35:35.911Z,29.14
2018-09-14T14:37:59.774Z,31.51
2018-09-14T14:40:23.698Z,31.32
2018-09-14T14:42:47.585Z,30.54
2018-09-14T14:45:11.464Z,24.91
2018-09-14T14:47:35.343Z,23.90
2018-09-14T14:49:59.229Z,22.83
2018-09-14T14:52:23.081Z,22.29
2018-09-14T14:54:53.484Z,21.92
2018-09-14T14:57:17.363Z,22.36
2018-09-14T14:59:41.231Z,21.71
2018-09-14T15:02:05.133Z,22.87
2018-09-14T15:04:29.020Z,26.07
2018-09-14T15:06:52.865Z,26.07
2018-09-14T15:09:16.752Z,29.45
2018-09-14T15:11:40.662Z,30.44
2018-09-14T15:14:04.538Z,30.28
2018-09-14T15:16:28.392Z,27.84
2018-09-14T15:18:52.256Z,29.22
2018-09-14T15:21:16.123Z,26.35
2018-09-14T15:23:40.032Z,25.30
2018-09-14T15:26:03.935Z,23.71
2018-09-14T15:28:27.870Z,24.55
2018-09-14T15:30:51.763Z,22.55
2018-09-14T15:33:15.639Z,22.32
2018-09-14T15:35:39.585Z,23.82
2018-09-14T15:38:03.442Z,24.57
2018-09-14T15:40:27.291Z,23.56
2018-09-14T15:42:51.160Z,25.80
2018-09-14T15:45:15.074Z,24.65
2018-09-14T15:47:38.971Z,23.78
2018-09-14T15:50:02.849Z,24.63
2018-09-14T15:52:26.763Z,25.00
2018-09-14T15:54:50.626Z,24.50
2018-09-14T15:57:14.506Z,26.02
2018-09-14T15:59:38.354Z,24.51
2018-09-14T16:02:02.246Z,24.10
2018-09-14T16:04:26.232Z,24.55
2018-09-14T16:06:50.219Z,27.10
2018-09-14T16:09:14.071Z,30.88
2018-09-14T16:11:37.951Z,31.20
2018-09-14T16:14:01.813Z,33.14
2018-09-14T16:16:25.781Z,33.14
2018-09-14T16:18:49.695Z,34.76
2018-09-14T16:21:13.482Z,35.26
2018-09-14T16:23:37.384Z,35.20
2018-09-14T16:26:01.260Z,34.60
2018-09-14T16:28:25.211Z,35.37
2018-09-14T16:30:49.082Z,36.25
2018-09-14T16:33:13.113Z,36.51
2018-09-14T16:35:36.981Z,35.98
2018-09-14T16:38:00.806Z,36.32
2018-09-14T16:40:24.747Z,36.27
2018-09-14T16:42:48.613Z,36.20
2018-09-14T16:45:12.480Z,36.74
2018-09-14T16:47:36.326Z,37.08
2018-09-14T16:50:00.316Z,37.10
2018-09-14T16:52:24.262Z,37.49
2018-09-14T16:54:48.144Z,37.79
2018-09-14T16:57:12.091Z,38.41
2018-09-14T16:59:36.134Z,37.76
2018-09-14T17:02:00.014Z,38.41
2018-09-14T17:04:23.968Z,37.96
2018-09-14T17:06:47.820Z,38.77
2018-09-14T17:09:11.804Z,37.78
2018-09-14T17:11:35.782Z,38.54
2018-09-14T17:13:59.667Z,38.64
2018-09-14T17:16:23.645Z,38.19
2018-09-14T17:18:47.566Z,39.24
2018-09-14T17:21:11.424Z,39.17
2018-09-14T17:23:35.496Z,39.24
2018-09-14T17:25:59.366Z,39.97
2018-09-14T17:28:23.279Z,40.03
2018-09-14T17:30:47.210Z,39.25
2018-09-14T17:33:11.106Z,40.31
2018-09-14T17:35:35.046Z,40.63
2018-09-14T17:37:58.886Z,40.18
2018-09-14T17:40:22.737Z,40.60
2018-09-14T17:42:46.730Z,40.06
2018-09-14T17:45:10.675Z,40.50
2018-09-14T17:47:34.675Z,40.82
2018-09-14T17:49:58.729Z,41.30
2018-09-14T17:52:22.626Z,41.45
2018-09-14T17:54:46.528Z,40.79
2018-09-14T17:57:10.520Z,41.52
2018-09-14T17:59:34.406Z,41.13
2018-09-14T18:01:58.273Z,41.64
2018-09-14T18:04:22.311Z,41.37
2018-09-14T18:06:46.196Z,41.71
2018-09-14T18:09:11.407Z,42.65
2018-09-14T18:11:35.351Z,42.26
2018-09-14T18:13:59.240Z,42.56
2018-09-14T18:16:23.183Z,42.55
2018-09-14T18:18:47.104Z,42.92
2018-09-14T18:21:11.089Z,42.79
2018-09-14T18:25:57.951Z,43.54
2018-09-14T18:28:21.938Z,43.74
2018-09-14T18:30:45.932Z,44.05
2018-09-14T18:33:10.000Z,44.01
2018-09-14T18:35:34.201Z,43.51
2018-09-14T18:37:58.254Z,43.98
2018-09-14T18:40:22.405Z,44.10
2018-09-14T18:42:46.585Z,44.14
2018-09-14T18:45:10.856Z,44.13
2018-09-14T18:47:35.180Z,44.63
2018-09-14T18:49:59.494Z,45.07
2018-09-14T18:52:23.949Z,45.02
2018-09-14T18:54:48.324Z,45.51
2018-09-14T18:57:12.615Z,44.57
2018-09-14T19:00:07.760Z,45.53
2018-09-14T19:02:32.266Z,45.42
2018-09-14T19:04:56.714Z,45.87
2018-09-14T19:07:21.018Z,45.28
2018-09-14T19:09:45.381Z,45.17
2018-09-14T19:12:09.813Z,46.50
2018-09-14T19:14:34.154Z,47.04
2018-09-14T19:16:58.643Z,46.20
2018-09-14T19:19:23.124Z,47.20
2018-09-14T19:21:47.453Z,47.48
2018-09-14T19:24:11.908Z,46.74
2018-09-14T19:26:36.277Z,47.08
2018-09-14T19:29:00.696Z,47.04
2018-09-14T19:31:25.204Z,47.55
2018-09-14T19:33:49.588Z,48.32
2018-09-14T19:36:14.075Z,47.58
2018-09-14T19:38:38.481Z,47.95
2018-09-14T19:41:02.889Z,47.62
2018-09-14T19:43:27.280Z,47.81
2018-09-14T19:45:51.607Z,48.24
2018-09-14T19:48:15.950Z,49.09
2018-09-14T19:50:40.376Z,48.63
2018-09-14T19:53:04.830Z,48.16
2018-09-14T19:55:29.121Z,47.67
2018-09-14T19:57:53.350Z,48.55
2018-09-14T20:00:17.963Z,47.99
2018-09-14T20:02:42.252Z,47.96
2018-09-14T20:05:06.477Z,48.60
2018-09-14T20:07:30.764Z,48.24
2018-09-14T20:09:55.092Z,49.31
2018-09-14T20:12:19.330Z,48.55
2018-09-14T20:14:43.550Z,49.12
2018-09-14T20:17:07.826Z,49.47
2018-09-14T20:19:32.053Z,49.86
2018-09-14T20:21:56.197Z,49.37
2018-09-14T20:24:20.239Z,49.98
2018-09-14T20:26:44.312Z,49.51
2018-09-14T20:29:08.275Z,50.41
2018-09-14T20:31:32.231Z,49.72
2018-09-14T20:33:56.092Z,50.19
2018-09-14T20:36:20.026Z,50.90
2018-09-14T20:38:43.976Z,50.94
2018-09-14T20:41:07.902Z,50.59
2018-09-14T20:43:31.938Z,50.72
2018-09-14T20:45:55.928Z,51.18
2018-09-14T20:48:19.839Z,51.30
2018-09-14T20:50:43.748Z,51.53
2018-09-14T20:53:07.620Z,51.97
2018-09-14T20:55:31.522Z,50.51
2018-09-14T20:57:55.477Z,51.27
2018-09-14T21:00:23.760Z,52.08
2018-09-14T21:02:48.407Z,51.56
2018-09-14T21:05:12.257Z,52.12
2018-09-14T21:07:36.360Z,51.11
2018-09-14T21:10:00.263Z,52.36
2018-09-14T21:12:24.133Z,52.08
2018-09-14T21:14:48.026Z,52.33
2018-09-14T21:17:11.889Z,51.78
2018-09-14T21:19:35.813Z,52.38
2018-09-14T21:21:59.675Z,52.28
2018-09-14T21:24:23.600Z,51.78
2018-09-14T21:26:47.549Z,52.48
2018-09-14T21:29:11.524Z,52.49
2018-09-14T21:31:35.299Z,53.11
2018-09-14T21:33:59.206Z,52.59
2018-09-14T21:36:23.105Z,52.61
2018-09-14T21:38:47.001Z,52.52
2018-09-14T21:41:10.862Z,52.95
2018-09-14T21:43:34.727Z,53.52
2018-09-14T21:45:58.625Z,53.20
2018-09-14T21:48:22.591Z,53.54
2018-09-14T21:50:46.402Z,53.06
2018-09-14T21:53:10.279Z,53.26
2018-09-14T21:55:34.169Z,53.19
2018-09-14T21:57:58.083Z,52.70
2018-09-14T22:00:27.344Z,53.20
2018-09-14T22:02:51.311Z,53.16
2018-09-14T22:05:15.205Z,53.59
2018-09-14T22:07:39.081Z,53.93
2018-09-14T22:10:02.993Z,54.65
2018-09-14T22:12:26.821Z,53.69
2018-09-14T22:14:50.688Z,53.61
2018-09-14T22:17:14.571Z,54.06
2018-09-14T22:19:38.427Z,53.71
2018-09-14T22:22:02.419Z,53.64
2018-09-14T22:24:26.249Z,54.32
2018-09-14T22:26:50.144Z,53.59
2018-09-14T22:29:14.163Z,53.54
2018-09-14T22:31:38.163Z,53.94
2018-09-14T22:34:02.072Z,54.19
2018-09-14T22:36:25.970Z,53.75
2018-09-14T22:38:49.821Z,54.26
2018-09-14T22:41:13.690Z,53.91
2018-09-14T22:43:37.557Z,54.30
2018-09-14T22:46:01.695Z,54.27
2018-09-14T22:48:25.525Z,53.98
2018-09-14T22:50:49.360Z,54.45
2018-09-14T22:53:13.222Z,54.14
2018-09-14T22:55:37.098Z,53.93
2018-09-14T22:58:00.980Z,54.75
2018-09-14T23:00:30.170Z,53.86
2018-09-14T23:02:54.082Z,54.85
2018-09-14T23:05:17.929Z,54.55
2018-09-14T23:07:41.809Z,53.65
2018-09-14T23:10:05.711Z,54.45
2018-09-14T23:12:29.546Z,54.79
2018-09-14T23:14:53.432Z,54.50
2018-09-14T23:17:17.255Z,54.97
2018-09-14T23:19:41.155Z,55.31
2018-09-14T23:22:05.125Z,54.93
2018-09-14T23:24:28.987Z,55.32
2018-09-14T23:26:52.875Z,56.55
2018-09-14T23:29:16.809Z,57.60
2018-09-14T23:31:40.622Z,58.31
2018-09-14T23:34:04.606Z,56.67
2018-09-14T23:36:28.455Z,58.01
2018-09-14T23:38:52.318Z,58.03
2018-09-14T23:41:16.195Z,58.66
2018-09-14T23:43:40.038Z,59.20
2018-09-14T23:46:03.999Z,58.27
2018-09-14T23:48:27.842Z,60.12
2018-09-14T23:50:51.682Z,60.03
2018-09-14T23:53:15.641Z,59.07
2018-09-14T23:55:39.557Z,58.14
2018-09-14T23:58:03.546Z,58.95
